Aviation Digital Data Service (ADDS)

Output produced by METARs form (0156 UTC 22 August 2014)
found at http://aviationweather.gov/adds/metars/
 
KAEX 220153Z 16003KT 10SM CLR 24/23 A3007 RMK AO2 SLP184 T02390228